createdAt,value
2023-04-18T00:00:09.299Z,771.00
2023-04-18T00:01:09.316Z,771.00
2023-04-18T00:02:09.420Z,770.00
2023-04-18T00:03:09.573Z,768.00
2023-04-18T00:04:09.492Z,767.00
2023-04-18T00:05:09.430Z,767.00
2023-04-18T00:06:09.336Z,766.00
2023-04-18T00:07:09.424Z,761.00
2023-04-18T00:08:09.520Z,758.00
2023-04-18T00:09:09.629Z,757.00
2023-04-18T00:10:09.584Z,756.00
2023-04-18T00:11:09.605Z,758.00
2023-04-18T00:12:09.597Z,758.00
2023-04-18T00:13:09.615Z,760.00
2023-04-18T00:14:09.613Z,758.00
2023-04-18T00:15:09.641Z,756.00
2023-04-18T00:16:09.708Z,758.00
2023-04-18T00:17:09.786Z,756.00
2023-04-18T00:18:09.697Z,757.00
2023-04-18T00:19:09.706Z,756.00
2023-04-18T00:20:09.707Z,759.00
2023-04-18T00:21:09.797Z,761.00
2023-04-18T00:22:09.894Z,763.00
2023-04-18T00:23:12.138Z,764.00
2023-04-18T00:24:09.988Z,766.00
2023-04-18T00:25:09.955Z,767.00
2023-04-18T00:26:09.979Z,763.00
2023-04-18T00:27:09.981Z,765.00
2023-04-18T00:28:09.935Z,763.00
2023-04-18T00:29:09.923Z,763.00
2023-04-18T00:30:09.944Z,763.00
2023-04-18T00:31:09.977Z,763.00
2023-04-18T00:32:09.905Z,760.00
2023-04-18T00:33:09.913Z,761.00
2023-04-18T00:34:09.898Z,762.00
2023-04-18T00:35:09.914Z,764.00
2023-04-18T00:36:09.893Z,762.00
2023-04-18T00:37:09.922Z,762.00
2023-04-18T00:38:09.879Z,760.00
2023-04-18T00:39:09.902Z,759.00
2023-04-18T00:40:09.853Z,761.00
2023-04-18T00:41:09.865Z,760.00
2023-04-18T00:42:09.874Z,758.00
2023-04-18T00:43:09.836Z,758.00
2023-04-18T00:44:09.890Z,756.00
2023-04-18T00:45:09.837Z,752.00
2023-04-18T00:46:09.897Z,749.00
2023-04-18T00:47:09.853Z,749.00
2023-04-18T00:48:09.811Z,749.00
2023-04-18T00:49:09.828Z,750.00
2023-04-18T00:50:09.847Z,746.00
2023-04-18T00:51:09.818Z,747.00
2023-04-18T00:52:09.773Z,747.00
2023-04-18T00:53:09.797Z,751.00
2023-04-18T00:54:09.790Z,750.00
2023-04-18T00:55:09.782Z,748.00
2023-04-18T00:56:09.763Z,750.00
2023-04-18T00:57:09.730Z,747.00
2023-04-18T00:58:09.780Z,746.00
2023-04-18T00:59:09.728Z,742.00
2023-04-18T01:00:09.785Z,743.00
2023-04-18T01:01:09.789Z,743.00
2023-04-18T01:02:09.753Z,743.00
2023-04-18T01:03:09.793Z,743.00
2023-04-18T01:04:09.851Z,742.00
2023-04-18T01:05:09.721Z,744.00
2023-04-18T01:06:09.683Z,740.00
2023-04-18T01:07:09.707Z,740.00
2023-04-18T01:08:09.698Z,739.00
2023-04-18T01:09:09.686Z,738.00
2023-04-18T01:10:09.684Z,737.00
2023-04-18T01:11:09.705Z,736.00
2023-04-18T01:12:09.675Z,734.00
2023-04-18T01:13:09.624Z,736.00
2023-04-18T01:14:09.655Z,738.00
2023-04-18T01:15:09.647Z,738.00
2023-04-18T01:16:09.801Z,740.00
2023-04-18T01:17:09.631Z,739.00
2023-04-18T01:18:09.664Z,735.00
2023-04-18T01:19:09.609Z,731.00
2023-04-18T01:20:09.621Z,730.00
2023-04-18T01:21:09.589Z,729.00
2023-04-18T01:22:09.609Z,728.00
2023-04-18T01:23:09.554Z,731.00
2023-04-18T01:24:09.581Z,730.00
2023-04-18T01:25:09.594Z,730.00
2023-04-18T01:26:09.553Z,725.00
2023-04-18T01:27:09.539Z,725.00
2023-04-18T01:28:09.558Z,725.00
2023-04-18T01:29:09.560Z,726.00
2023-04-18T01:30:09.550Z,726.00
2023-04-18T01:31:09.520Z,724.00
2023-04-18T01:32:09.495Z,725.00
2023-04-18T01:33:09.511Z,728.00
2023-04-18T01:34:09.501Z,729.00
2023-04-18T01:35:09.566Z,730.00
2023-04-18T01:36:09.494Z,730.00
2023-04-18T01:37:09.464Z,732.00
2023-04-18T01:38:09.456Z,730.00
2023-04-18T01:39:09.513Z,726.00
2023-04-18T01:40:09.482Z,723.00
2023-04-18T01:41:09.443Z,723.00
2023-04-18T01:42:09.461Z,722.00
2023-04-18T01:43:09.452Z,718.00
2023-04-18T01:44:09.418Z,716.00
2023-04-18T01:45:09.436Z,716.00
2023-04-18T01:46:09.435Z,720.00
2023-04-18T01:47:09.392Z,721.00
2023-04-18T01:48:09.399Z,719.00
2023-04-18T01:49:09.393Z,718.00
2023-04-18T01:50:09.402Z,718.00
2023-04-18T01:51:09.492Z,718.00
2023-04-18T01:52:09.395Z,719.00
2023-04-18T01:53:09.379Z,716.00
2023-04-18T01:54:09.386Z,718.00
2023-04-18T01:55:09.396Z,720.00
2023-04-18T01:56:09.388Z,716.00
2023-04-18T01:57:09.386Z,714.00
2023-04-18T01:58:09.381Z,711.00
2023-04-18T01:59:09.343Z,712.00
2023-04-18T02:00:09.363Z,712.00
2023-04-18T02:01:09.342Z,712.00
2023-04-18T02:02:09.391Z,710.00
2023-04-18T02:03:09.473Z,711.00
2023-04-18T02:04:09.346Z,709.00
2023-04-18T02:05:09.319Z,707.00
2023-04-18T02:06:09.313Z,707.00
2023-04-18T02:07:09.289Z,706.00
2023-04-18T02:08:09.275Z,705.00
2023-04-18T02:09:09.259Z,707.00
2023-04-18T02:10:09.268Z,709.00
2023-04-18T02:11:09.282Z,710.00
2023-04-18T02:12:09.256Z,708.00
2023-04-18T02:13:09.273Z,704.00
2023-04-18T02:14:09.262Z,704.00
2023-04-18T02:15:09.219Z,700.00
2023-04-18T02:16:09.259Z,699.00
2023-04-18T02:17:09.204Z,696.00
2023-04-18T02:18:09.216Z,694.00
2023-04-18T02:19:09.215Z,697.00
2023-04-18T02:20:09.231Z,698.00
2023-04-18T02:21:09.218Z,699.00
2023-04-18T02:22:09.212Z,698.00
2023-04-18T02:23:09.172Z,700.00
2023-04-18T02:24:09.206Z,701.00
2023-04-18T02:25:09.207Z,701.00
2023-04-18T02:26:09.176Z,699.00
2023-04-18T02:27:09.141Z,698.00
2023-04-18T02:28:09.147Z,698.00
2023-04-18T02:29:09.122Z,697.00
2023-04-18T02:30:09.140Z,695.00
2023-04-18T02:31:09.120Z,691.00
2023-04-18T02:32:09.259Z,690.00
2023-04-18T02:33:09.135Z,691.00
2023-04-18T02:34:09.142Z,694.00
2023-04-18T02:35:09.137Z,695.00
2023-04-18T02:36:09.092Z,695.00
2023-04-18T02:37:09.098Z,693.00
2023-04-18T02:38:09.086Z,691.00
2023-04-18T02:39:09.085Z,689.00
2023-04-18T02:40:09.095Z,687.00
2023-04-18T02:41:09.088Z,685.00
2023-04-18T02:42:09.064Z,689.00
2023-04-18T02:43:09.043Z,692.00
2023-04-18T02:44:09.017Z,692.00
2023-04-18T02:45:09.037Z,687.00
2023-04-18T02:46:09.104Z,687.00
2023-04-18T02:47:09.042Z,688.00
2023-04-18T02:48:09.060Z,689.00
2023-04-18T02:49:08.996Z,689.00
2023-04-18T02:50:09.002Z,686.00
2023-04-18T02:51:08.989Z,686.00
2023-04-18T02:52:08.999Z,685.00
2023-04-18T02:53:08.993Z,686.00
2023-04-18T02:54:09.028Z,685.00
2023-04-18T02:55:08.978Z,682.00
2023-04-18T02:56:08.955Z,681.00
2023-04-18T02:57:08.975Z,677.00
2023-04-18T02:58:08.983Z,679.00
2023-04-18T02:59:08.991Z,677.00
2023-04-18T03:00:08.949Z,678.00
2023-04-18T03:01:08.988Z,677.00
2023-04-18T03:02:09.001Z,680.00
2023-04-18T03:03:08.964Z,680.00
2023-04-18T03:04:08.923Z,680.00
2023-04-18T03:05:09.002Z,678.00
2023-04-18T03:06:08.891Z,677.00
2023-04-18T03:07:08.888Z,677.00
2023-04-18T03:08:08.908Z,677.00
2023-04-18T03:09:08.909Z,678.00
2023-04-18T03:10:08.883Z,678.00
2023-04-18T03:11:08.866Z,679.00
2023-04-18T03:12:08.960Z,680.00
2023-04-18T03:13:08.994Z,681.00
2023-04-18T03:14:08.994Z,682.00
2023-04-18T03:15:08.984Z,683.00
2023-04-18T03:16:09.018Z,680.00
2023-04-18T03:17:08.953Z,678.00
2023-04-18T03:18:09.158Z,680.00
2023-04-18T03:19:09.153Z,682.00
2023-04-18T03:20:09.273Z,683.00
2023-04-18T03:21:09.347Z,682.00
2023-04-18T03:22:09.450Z,682.00
2023-04-18T03:23:09.549Z,677.00
2023-04-18T03:24:10.896Z,671.00
2023-04-18T03:25:09.683Z,670.00
2023-04-18T03:26:09.800Z,667.00
2023-04-18T03:27:09.668Z,667.00
2023-04-18T03:28:09.656Z,666.00
2023-04-18T03:29:52.764Z,674.00
2023-04-18T03:30:52.903Z,662.00
2023-04-18T03:31:52.812Z,661.00
2023-04-18T03:32:52.994Z,664.00
2023-04-18T03:33:52.899Z,667.00
2023-04-18T03:34:52.903Z,665.00
2023-04-18T03:35:52.860Z,662.00
2023-04-18T03:36:52.873Z,664.00
2023-04-18T03:37:52.868Z,661.00
2023-04-18T03:38:52.879Z,662.00
2023-04-18T03:39:52.867Z,662.00
2023-04-18T03:40:52.850Z,660.00
2023-04-18T03:41:52.807Z,660.00
2023-04-18T03:42:52.824Z,658.00
2023-04-18T03:43:52.827Z,657.00
2023-04-18T03:44:52.873Z,657.00
2023-04-18T03:45:52.873Z,659.00
2023-04-18T03:46:52.814Z,656.00
2023-04-18T03:47:52.832Z,656.00
2023-04-18T03:48:52.781Z,654.00
2023-04-18T03:49:52.790Z,654.00
2023-04-18T03:50:52.744Z,656.00
2023-04-18T03:51:52.805Z,656.00
2023-04-18T03:52:52.769Z,655.00
2023-04-18T03:53:52.747Z,651.00
2023-04-18T03:54:52.758Z,652.00
2023-04-18T03:55:52.721Z,654.00
2023-04-18T03:56:52.744Z,655.00
2023-04-18T03:57:52.707Z,650.00
2023-04-18T03:58:52.761Z,650.00
2023-04-18T03:59:52.713Z,649.00
2023-04-18T04:00:52.701Z,644.00
2023-04-18T04:01:52.812Z,643.00
2023-04-18T04:02:52.873Z,643.00
2023-04-18T04:03:52.869Z,642.00
2023-04-18T04:04:52.808Z,645.00
2023-04-18T04:05:52.678Z,641.00
2023-04-18T04:06:52.661Z,640.00
2023-04-18T04:07:52.651Z,642.00
2023-04-18T04:08:52.649Z,642.00
2023-04-18T04:09:52.664Z,644.00
2023-04-18T04:10:52.679Z,640.00
2023-04-18T04:11:52.716Z,639.00
2023-04-18T04:12:52.643Z,640.00
2023-04-18T04:13:52.674Z,637.00
2023-04-18T04:14:52.619Z,638.00
2023-04-18T04:15:52.626Z,637.00
2023-04-18T04:16:52.824Z,639.00
2023-04-18T04:17:52.720Z,639.00
2023-04-18T04:18:52.639Z,640.00
2023-04-18T04:19:52.584Z,643.00
2023-04-18T04:20:52.591Z,642.00
2023-04-18T04:21:52.602Z,643.00
2023-04-18T04:22:52.584Z,643.00
2023-04-18T04:23:52.577Z,641.00
2023-04-18T04:24:52.571Z,636.00
2023-04-18T04:25:52.564Z,635.00
2023-04-18T04:26:52.567Z,636.00
2023-04-18T04:27:52.549Z,634.00
2023-04-18T04:28:52.530Z,634.00
2023-04-18T04:29:52.565Z,637.00
2023-04-18T04:30:52.523Z,638.00
2023-04-18T04:31:52.536Z,636.00
2023-04-18T04:32:52.582Z,635.00
2023-04-18T04:33:52.522Z,634.00
2023-04-18T04:34:52.509Z,633.00
2023-04-18T04:35:52.516Z,630.00
2023-04-18T04:36:52.496Z,630.00
2023-04-18T04:37:52.486Z,629.00
2023-04-18T04:38:52.474Z,630.00
2023-04-18T04:39:52.539Z,630.00
2023-04-18T04:40:52.462Z,631.00
2023-04-18T04:41:52.466Z,633.00
2023-04-18T04:42:52.452Z,634.00
2023-04-18T04:43:52.459Z,631.00
2023-04-18T04:44:52.474Z,633.00
2023-04-18T04:45:52.488Z,631.00
2023-04-18T04:46:52.425Z,630.00
2023-04-18T04:47:52.434Z,629.00
2023-04-18T04:48:52.412Z,628.00
2023-04-18T04:49:52.396Z,627.00
2023-04-18T04:50:52.408Z,625.00
2023-04-18T04:51:52.415Z,626.00
2023-04-18T04:52:52.397Z,628.00
2023-04-18T04:53:52.372Z,625.00
2023-04-18T04:54:52.360Z,623.00
2023-04-18T04:55:52.351Z,626.00
2023-04-18T04:56:52.354Z,623.00
2023-04-18T04:57:52.329Z,624.00
2023-04-18T04:58:52.338Z,620.00
2023-04-18T04:59:52.426Z,621.00
2023-04-18T05:00:52.414Z,626.00
2023-04-18T05:01:52.487Z,625.00
2023-04-18T05:02:52.420Z,625.00
2023-04-18T05:03:52.413Z,624.00
2023-04-18T05:04:52.324Z,623.00
2023-04-18T05:05:52.288Z,621.00
2023-04-18T05:06:52.300Z,624.00
2023-04-18T05:07:52.279Z,624.00
2023-04-18T05:08:52.284Z,622.00
2023-04-18T05:09:52.275Z,623.00
2023-04-18T05:10:52.242Z,623.00
2023-04-18T05:11:52.267Z,622.00
2023-04-18T05:12:52.214Z,623.00
2023-04-18T05:13:52.234Z,622.00
2023-04-18T05:14:52.334Z,625.00
2023-04-18T05:15:52.236Z,629.00
2023-04-18T05:16:52.252Z,627.00
2023-04-18T05:17:52.242Z,628.00
2023-04-18T05:18:52.205Z,630.00
2023-04-18T05:19:52.192Z,627.00
2023-04-18T05:20:52.216Z,628.00
2023-04-18T05:21:52.186Z,627.00
2023-04-18T05:22:52.178Z,625.00
2023-04-18T05:23:52.152Z,621.00
2023-04-18T05:24:52.961Z,621.00
2023-04-18T05:25:52.145Z,623.00
2023-04-18T05:26:52.125Z,621.00
2023-04-18T05:27:52.157Z,621.00
2023-04-18T05:28:52.118Z,620.00
2023-04-18T05:29:52.130Z,618.00
2023-04-18T05:30:52.170Z,621.00
2023-04-18T05:31:52.103Z,620.00
2023-04-18T05:32:52.238Z,621.00
2023-04-18T05:33:52.102Z,622.00
2023-04-18T05:34:52.087Z,621.00
2023-04-18T05:35:52.090Z,623.00
2023-04-18T05:36:52.128Z,623.00
2023-04-18T05:37:52.138Z,624.00
2023-04-18T05:38:52.085Z,629.00
2023-04-18T05:39:52.202Z,643.00
2023-04-18T05:40:52.302Z,688.00
2023-04-18T05:41:52.419Z,723.00
2023-04-18T05:42:52.480Z,739.00
2023-04-18T05:44:02.348Z,764.00
2023-04-18T05:44:53.584Z,845.00
2023-04-18T05:45:52.802Z,855.00
2023-04-18T05:46:52.570Z,921.00
2023-04-18T05:47:52.894Z,943.00
2023-04-18T05:48:52.557Z,959.00
2023-04-18T05:49:52.568Z,961.00
2023-04-18T05:50:52.553Z,984.00
2023-04-18T05:51:52.527Z,1001.00
2023-04-18T05:52:52.542Z,975.00
2023-04-18T05:53:52.517Z,849.00
2023-04-18T05:54:52.536Z,780.00
2023-04-18T05:55:52.509Z,754.00
2023-04-18T05:56:52.511Z,737.00
2023-04-18T05:57:52.524Z,735.00
2023-04-18T05:58:52.489Z,728.00
2023-04-18T05:59:52.492Z,703.00
2023-04-18T06:00:52.479Z,710.00
2023-04-18T06:01:52.510Z,715.00
2023-04-18T06:02:52.712Z,906.00
2023-04-18T06:03:52.750Z,904.00
2023-04-18T06:04:52.755Z,921.00
2023-04-18T06:05:52.712Z,948.00
2023-04-18T06:06:52.768Z,973.00
2023-04-18T06:07:52.778Z,999.00
2023-04-18T06:08:52.733Z,1035.00
2023-04-18T06:09:52.772Z,1049.00
2023-04-18T06:10:52.779Z,1064.00
2023-04-18T06:11:52.849Z,1090.00
2023-04-18T06:12:52.826Z,1125.00
2023-04-18T06:13:52.818Z,1128.00
2023-04-18T06:14:52.839Z,1140.00
2023-04-18T06:15:52.862Z,1194.00
2023-04-18T06:16:52.921Z,1215.00
2023-04-18T06:17:52.938Z,1219.00
2023-04-18T06:18:52.888Z,1233.00
2023-04-18T06:19:52.975Z,1260.00
2023-04-18T06:20:52.972Z,1292.00
2023-04-18T06:21:53.029Z,1301.00
2023-04-18T06:22:53.094Z,1308.00
2023-04-18T06:23:53.172Z,1337.00
2023-04-18T06:24:53.215Z,1344.00
2023-04-18T06:25:53.264Z,1352.00
2023-04-18T06:26:54.441Z,1370.00
2023-04-18T06:27:53.389Z,1418.00
2023-04-18T06:28:53.433Z,1431.00
2023-04-18T06:29:53.985Z,1449.00
2023-04-18T06:30:53.555Z,1472.00
2023-04-18T06:31:53.603Z,1494.00
2023-04-18T06:32:53.730Z,1514.00
2023-04-18T06:33:53.728Z,1554.00
2023-04-18T06:34:53.728Z,1578.00
2023-04-18T06:35:53.798Z,1597.00
2023-04-18T06:36:53.862Z,1639.00
2023-04-18T06:37:53.892Z,1645.00
2023-04-18T06:38:53.925Z,1656.00
2023-04-18T06:39:53.947Z,1671.00
2023-04-18T06:40:53.971Z,1703.00
2023-04-18T06:41:53.996Z,1710.00
2023-04-18T06:42:54.047Z,1718.00
2023-04-18T06:44:03.726Z,1754.00
2023-04-18T06:44:55.487Z,1761.00
2023-04-18T06:45:54.183Z,1767.00
2023-04-18T06:46:54.085Z,1835.00
2023-04-18T06:47:54.098Z,1826.00
2023-04-18T06:48:54.079Z,1911.00
2023-04-18T06:49:54.093Z,1879.00
2023-04-18T06:50:54.055Z,1398.00
2023-04-18T06:51:54.037Z,1204.00
2023-04-18T06:52:54.035Z,1028.00
2023-04-18T06:53:54.036Z,832.00
2023-04-18T06:54:54.018Z,837.00
2023-04-18T06:55:54.007Z,838.00
2023-04-18T06:56:54.032Z,966.00
2023-04-18T06:57:54.035Z,878.00
2023-04-18T06:58:54.002Z,781.00
2023-04-18T06:59:53.991Z,926.00
2023-04-18T07:00:54.025Z,958.00
2023-04-18T07:01:54.395Z,1023.00
2023-04-18T07:02:54.209Z,954.00
2023-04-18T07:03:54.129Z,969.00
2023-04-18T07:04:54.093Z,978.00
2023-04-18T07:05:54.152Z,1000.00
2023-04-18T07:06:54.153Z,1007.00
2023-04-18T07:07:54.147Z,1006.00
2023-04-18T07:08:54.550Z,1007.00
2023-04-18T07:09:54.220Z,1008.00
2023-04-18T07:10:54.569Z,1010.00
2023-04-18T07:11:54.389Z,1015.00
2023-04-18T07:12:54.478Z,1017.00
2023-04-18T07:13:54.504Z,1012.00
2023-04-18T07:14:54.517Z,1007.00
2023-04-18T07:15:54.533Z,1010.00
2023-04-18T07:16:54.636Z,1014.00
2023-04-18T07:17:54.723Z,962.00
2023-04-18T07:18:54.697Z,979.00
2023-04-18T07:19:54.803Z,986.00
2023-04-18T07:20:54.812Z,992.00
2023-04-18T07:21:54.911Z,997.00
2023-04-18T07:22:54.947Z,1007.00
2023-04-18T07:23:55.004Z,1015.00
2023-04-18T07:24:55.080Z,1019.00
2023-04-18T07:25:55.109Z,1024.00
2023-04-18T07:26:55.407Z,1024.00
2023-04-18T07:27:55.266Z,1022.00
2023-04-18T07:28:55.239Z,1021.00
2023-04-18T07:29:55.327Z,1019.00
2023-04-18T07:30:55.428Z,1018.00
2023-04-18T07:31:55.457Z,1018.00
2023-04-18T07:32:55.473Z,1018.00
2023-04-18T07:33:55.524Z,1026.00
2023-04-18T07:34:55.527Z,1035.00
2023-04-18T07:35:55.597Z,1037.00
2023-04-18T07:36:55.635Z,1042.00
2023-04-18T07:37:55.652Z,1043.00
2023-04-18T07:38:55.714Z,1054.00
2023-04-18T07:39:55.755Z,1095.00
2023-04-18T07:40:56.010Z,1167.00
2023-04-18T07:41:56.036Z,1148.00
2023-04-18T07:42:55.922Z,1153.00
2023-04-18T07:43:55.960Z,1220.00
2023-04-18T07:44:56.029Z,1283.00
2023-04-18T07:45:56.562Z,1296.00
2023-04-18T07:46:56.110Z,1290.00
2023-04-18T07:47:56.200Z,1310.00
2023-04-18T07:48:56.209Z,1457.00
2023-04-18T07:49:56.235Z,1449.00
2023-04-18T07:50:56.934Z,1397.00
2023-04-18T07:51:56.306Z,1417.00
2023-04-18T07:52:56.395Z,1453.00
2023-04-18T07:53:56.461Z,1468.00
2023-04-18T07:54:56.439Z,1483.00
2023-04-18T07:55:56.471Z,1497.00
2023-04-18T07:56:56.497Z,1515.00
2023-04-18T07:57:56.530Z,1531.00
2023-04-18T07:58:56.591Z,1562.00
2023-04-18T07:59:56.604Z,1599.00
2023-04-18T08:00:56.662Z,1675.00
2023-04-18T08:01:56.681Z,1669.00
2023-04-18T08:02:56.796Z,1660.00
2023-04-18T08:03:56.789Z,1664.00
2023-04-18T08:04:56.990Z,1674.00
2023-04-18T08:05:56.803Z,1684.00
2023-04-18T08:06:56.870Z,1701.00
2023-04-18T08:07:56.915Z,1733.00
2023-04-18T08:08:56.898Z,1748.00
2023-04-18T08:09:56.974Z,1755.00
2023-04-18T08:10:56.972Z,1767.00
2023-04-18T08:11:56.989Z,1790.00
2023-04-18T08:12:57.032Z,1795.00
2023-04-18T08:13:57.070Z,1812.00
2023-04-18T08:14:57.279Z,1828.00
2023-04-18T08:15:57.524Z,1832.00
2023-04-18T08:16:57.202Z,1841.00
2023-04-18T08:17:57.266Z,1848.00
2023-04-18T08:18:57.221Z,1876.00
2023-04-18T08:19:57.279Z,1896.00
2023-04-18T08:20:57.289Z,1906.00
2023-04-18T08:21:57.320Z,1915.00
2023-04-18T08:23:06.838Z,1932.00
2023-04-18T08:23:58.346Z,1952.00
2023-04-18T08:25:04.194Z,1961.00
2023-04-18T08:25:58.327Z,1975.00
2023-04-18T08:26:57.324Z,1987.00
2023-04-18T08:27:57.304Z,2002.00
2023-04-18T08:28:57.330Z,2010.00
2023-04-18T08:29:57.294Z,2029.00
2023-04-18T08:30:57.406Z,2052.00
2023-04-18T08:31:57.435Z,2046.00
2023-04-18T08:32:58.138Z,2053.00
2023-04-18T08:33:57.286Z,2063.00
2023-04-18T08:34:57.311Z,2065.00
2023-04-18T08:35:57.255Z,2161.00
2023-04-18T08:36:57.272Z,2147.00
2023-04-18T08:37:57.275Z,2160.00
2023-04-18T08:38:57.259Z,2171.00
2023-04-18T08:39:57.254Z,2199.00
2023-04-18T08:40:57.209Z,2218.00
2023-04-18T08:41:57.246Z,2260.00
2023-04-18T08:42:57.227Z,2284.00
2023-04-18T08:43:57.340Z,2328.00
2023-04-18T08:44:57.212Z,2331.00
2023-04-18T08:45:57.524Z,1313.00
2023-04-18T08:46:57.262Z,1261.00
2023-04-18T08:47:57.366Z,1122.00
2023-04-18T08:48:57.345Z,1238.00
2023-04-18T08:49:57.381Z,1301.00
2023-04-18T08:50:57.517Z,1407.00
2023-04-18T08:51:57.439Z,1388.00
2023-04-18T08:52:57.463Z,1320.00
2023-04-18T08:53:57.491Z,1329.00
2023-04-18T08:54:57.534Z,1380.00
2023-04-18T08:55:57.556Z,1333.00
2023-04-18T08:56:57.624Z,1232.00
2023-04-18T08:57:57.658Z,1000.00
2023-04-18T08:58:57.705Z,985.00
2023-04-18T08:59:57.743Z,974.00
2023-04-18T09:00:57.880Z,911.00
2023-04-18T09:01:57.869Z,870.00
2023-04-18T09:02:57.992Z,924.00
2023-04-18T09:03:57.954Z,895.00
2023-04-18T09:04:58.032Z,990.00
2023-04-18T09:05:58.088Z,1008.00
2023-04-18T09:06:58.143Z,1014.00
2023-04-18T09:07:58.180Z,1036.00
2023-04-18T09:08:58.226Z,1039.00
2023-04-18T09:09:58.309Z,1032.00
2023-04-18T09:10:58.330Z,1027.00
2023-04-18T09:11:58.400Z,1027.00
2023-04-18T09:12:58.430Z,1035.00
2023-04-18T09:13:58.467Z,1044.00
2023-04-18T09:14:58.495Z,1100.00
2023-04-18T09:15:58.538Z,1120.00
2023-04-18T09:16:58.730Z,1133.00
2023-04-18T09:17:58.778Z,1146.00
2023-04-18T09:18:58.737Z,1195.00
2023-04-18T09:19:58.661Z,1202.00
2023-04-18T09:20:58.742Z,1225.00
2023-04-18T09:21:58.747Z,1254.00
2023-04-18T09:22:58.779Z,1260.00
2023-04-18T09:23:58.797Z,1263.00
2023-04-18T09:24:58.853Z,1270.00
2023-04-18T09:25:58.908Z,1277.00
2023-04-18T09:26:58.923Z,1284.00
2023-04-18T09:27:58.910Z,1288.00
2023-04-18T09:28:58.932Z,1288.00
2023-04-18T09:29:58.978Z,1296.00
2023-04-18T09:30:59.056Z,1302.00
2023-04-18T09:31:59.012Z,1309.00
2023-04-18T09:32:59.267Z,1318.00
2023-04-18T09:33:59.068Z,1328.00
2023-04-18T09:34:59.479Z,1336.00
2023-04-18T09:35:59.148Z,1345.00
2023-04-18T09:36:59.154Z,1349.00
2023-04-18T09:37:59.128Z,1355.00
2023-04-18T09:38:59.127Z,1359.00
2023-04-18T09:39:59.480Z,1358.00
2023-04-18T09:41:00.586Z,1366.00
2023-04-18T09:41:59.172Z,1379.00
2023-04-18T09:42:59.216Z,1386.00
2023-04-18T09:43:59.207Z,1402.00
2023-04-18T09:44:59.195Z,1418.00
2023-04-18T09:45:59.297Z,1420.00
2023-04-18T09:46:59.229Z,1384.00
2023-04-18T09:47:59.299Z,1416.00
2023-04-18T09:48:59.249Z,1420.00
2023-04-18T09:49:59.286Z,1411.00
2023-04-18T09:50:59.368Z,1407.00
2023-04-18T09:51:59.536Z,1409.00
2023-04-18T09:52:59.341Z,1415.00
2023-04-18T09:53:59.350Z,1418.00
2023-04-18T09:54:59.361Z,1427.00
2023-04-18T09:55:59.392Z,1430.00
2023-04-18T09:56:59.439Z,1436.00
2023-04-18T09:57:59.432Z,1438.00
2023-04-18T09:58:59.422Z,1439.00
2023-04-18T09:59:59.474Z,1444.00
2023-04-18T10:00:59.485Z,1449.00
2023-04-18T10:01:59.703Z,1453.00
2023-04-18T10:02:59.656Z,1456.00
2023-04-18T10:03:59.631Z,1465.00
2023-04-18T10:04:59.667Z,1468.00
2023-04-18T10:05:59.613Z,1475.00
2023-04-18T10:07:00.104Z,1475.00
2023-04-18T10:07:59.667Z,1476.00
2023-04-18T10:08:59.624Z,1484.00
2023-04-18T10:09:59.708Z,1490.00
2023-04-18T10:10:59.686Z,1492.00
2023-04-18T10:11:59.828Z,1494.00
2023-04-18T10:12:59.719Z,1503.00
2023-04-18T10:13:59.739Z,1508.00
2023-04-18T10:14:59.751Z,1506.00
2023-04-18T10:15:59.826Z,1506.00
2023-04-18T10:16:59.823Z,1514.00
2023-04-18T10:18:05.360Z,1515.00
2023-04-18T10:19:00.833Z,1518.00
2023-04-18T10:19:59.805Z,1519.00
2023-04-18T10:20:59.821Z,1522.00
2023-04-18T10:21:59.824Z,1525.00
2023-04-18T10:22:59.837Z,1529.00
2023-04-18T10:23:59.807Z,1530.00
2023-04-18T10:24:59.792Z,1529.00
2023-04-18T10:25:59.824Z,1528.00
2023-04-18T10:26:59.782Z,1528.00
2023-04-18T10:27:59.761Z,1530.00
2023-04-18T10:28:59.750Z,1532.00
2023-04-18T10:29:59.756Z,1528.00
2023-04-18T10:30:59.753Z,1529.00
2023-04-18T10:31:59.914Z,1528.00
2023-04-18T10:32:59.732Z,1529.00
2023-04-18T10:34:04.653Z,1527.00
2023-04-18T10:35:00.721Z,1522.00
2023-04-18T10:35:59.691Z,1517.00
2023-04-18T10:37:00.136Z,1519.00
2023-04-18T10:38:00.053Z,1530.00
2023-04-18T10:38:59.694Z,1599.00
2023-04-18T10:39:59.696Z,1593.00
2023-04-18T10:40:59.675Z,1584.00
2023-04-18T10:41:59.694Z,1661.00
2023-04-18T10:42:59.652Z,1665.00
2023-04-18T10:43:59.659Z,1669.00
2023-04-18T10:44:59.656Z,1700.00
2023-04-18T10:45:59.640Z,1713.00
2023-04-18T10:46:59.661Z,1717.00
2023-04-18T10:47:59.627Z,1723.00
2023-04-18T10:48:59.613Z,1729.00
2023-04-18T10:49:59.613Z,1728.00
2023-04-18T10:50:59.614Z,1726.00
2023-04-18T10:52:00.101Z,1725.00
2023-04-18T10:52:59.586Z,1731.00
2023-04-18T10:53:59.564Z,1734.00
2023-04-18T10:54:59.559Z,1741.00
2023-04-18T10:55:59.582Z,1746.00
2023-04-18T10:56:59.593Z,1731.00
2023-04-18T10:57:59.545Z,1710.00
2023-04-18T10:58:59.558Z,1709.00
2023-04-18T10:59:59.546Z,1713.00
2023-04-18T11:00:59.590Z,1708.00
2023-04-18T11:01:59.576Z,1711.00
2023-04-18T11:02:59.587Z,1719.00
2023-04-18T11:03:59.621Z,1736.00
2023-04-18T11:04:59.528Z,1779.00
2023-04-18T11:05:59.531Z,1815.00
2023-04-18T11:06:59.514Z,1859.00
2023-04-18T11:07:59.473Z,1876.00
2023-04-18T11:08:59.485Z,1887.00
2023-04-18T11:09:59.500Z,1903.00
2023-04-18T11:10:59.504Z,1944.00
2023-04-18T11:11:59.642Z,1957.00
2023-04-18T11:12:59.478Z,1990.00
2023-04-18T11:13:59.453Z,2008.00
2023-04-18T11:14:59.484Z,2026.00
2023-04-18T11:15:59.489Z,2075.00
2023-04-18T11:16:59.634Z,2088.00
2023-04-18T11:17:59.660Z,2109.00
2023-04-18T11:18:59.644Z,2185.00
2023-04-18T11:19:59.720Z,2185.00
2023-04-18T11:20:59.839Z,2193.00
2023-04-18T11:21:59.860Z,2218.00
2023-04-18T11:22:59.896Z,2232.00
2023-04-18T11:23:59.932Z,2242.00
2023-04-18T11:25:00.042Z,2252.00
2023-04-18T11:26:00.097Z,2264.00
2023-04-18T11:27:00.631Z,2278.00
2023-04-18T11:28:00.236Z,2287.00
2023-04-18T11:29:00.275Z,2305.00
2023-04-18T11:30:00.321Z,2317.00
2023-04-18T11:31:00.415Z,2333.00
2023-04-18T11:32:00.636Z,2349.00
2023-04-18T11:33:00.604Z,2228.00
2023-04-18T11:34:00.556Z,2222.00
2023-04-18T11:35:00.628Z,2204.00
2023-04-18T11:36:00.662Z,2167.00
2023-04-18T11:37:01.074Z,2143.00
2023-04-18T11:38:00.811Z,2134.00
2023-04-18T11:39:00.895Z,2127.00
2023-04-18T11:40:00.937Z,2127.00
2023-04-18T11:41:00.985Z,2120.00
2023-04-18T11:42:01.074Z,2107.00
2023-04-18T11:43:01.072Z,2099.00
2023-04-18T11:44:01.111Z,2089.00
2023-04-18T11:45:01.159Z,2080.00
2023-04-18T11:46:01.241Z,2059.00
2023-04-18T11:47:01.663Z,2045.00
2023-04-18T11:48:01.306Z,2039.00
2023-04-18T11:49:01.294Z,2032.00
2023-04-18T11:50:01.380Z,2013.00
2023-04-18T11:51:01.340Z,1999.00
2023-04-18T11:52:01.383Z,1991.00
2023-04-18T11:53:01.370Z,1971.00
2023-04-18T11:54:01.407Z,1944.00
2023-04-18T11:55:01.434Z,1890.00
2023-04-18T11:56:01.476Z,1874.00
2023-04-18T11:57:01.464Z,1834.00
2023-04-18T11:58:01.491Z,1825.00
2023-04-18T11:59:01.567Z,1832.00
2023-04-18T12:00:01.545Z,1843.00
2023-04-18T12:01:01.585Z,1845.00
2023-04-18T12:02:12.622Z,1844.00
2023-04-18T12:03:02.821Z,1844.00
2023-04-18T12:04:01.822Z,1842.00
2023-04-18T12:05:01.676Z,1841.00
2023-04-18T12:06:01.659Z,1836.00
2023-04-18T12:07:01.544Z,1829.00
2023-04-18T12:08:01.498Z,1820.00
2023-04-18T12:09:01.473Z,1811.00
2023-04-18T12:10:01.492Z,1803.00
2023-04-18T12:11:01.552Z,1801.00
2023-04-18T12:12:01.496Z,1777.00
2023-04-18T12:13:01.525Z,1675.00
2023-04-18T12:14:03.612Z,1677.00
2023-04-18T12:15:01.698Z,1696.00
2023-04-18T12:16:01.860Z,1720.00
2023-04-18T12:17:01.799Z,1731.00
2023-04-18T12:18:01.991Z,1737.00